Wetterdaten: Woche 25.10.04 - 31.10.04 (KW44)
Datum Zeit Temperatur Luftfeuchte Luftdruck Niederschlag Taupunkt Windchill Wind
25.10.2004 00:00 8,3 C 98 % 1014 hPa 0,0 l/m 8,0 C 8,3 C 0,0 km/h (0 Bft)
25.10.2004 01:00 8,2 C 99 % 1014 hPa 0,0 l/m 8,0 C 8,2 C 0,0 km/h (0 Bft)
25.10.2004 02:00 8,4 C 100 % 1014 hPa 0,0 l/m 8,3 C 8,4 C 0,1 km/h (0 Bft)
25.10.2004 03:00 8,6 C 100 % 1014 hPa 0,0 l/m 8,6 C 8,6 C 0,0 km/h (0 Bft)
25.10.2004 04:00 8,5 C 100 % 1014 hPa 0,0 l/m 8,5 C 8,5 C 0,3 km/h (0 Bft)
25.10.2004 05:00 8,3 C 100 % 1015 hPa 0,0 l/m 8,3 C 8,3 C 0,0 km/h (0 Bft)
25.10.2004 06:00 8,1 C 100 % 1015 hPa 0,0 l/m 8,1 C 8,1 C 0,0 km/h (0 Bft)
25.10.2004 07:00 8,5 C 100 % 1015 hPa 0,0 l/m 8,5 C 8,5 C 0,0 km/h (0 Bft)
25.10.2004 08:00 8,9 C 100 % 1015 hPa 0,0 l/m 8,9 C 8,9 C 0,0 km/h (0 Bft)
25.10.2004 09:00 10,0 C 100 % 1016 hPa 0,0 l/m 10,0 C 10,0 C 0,2 km/h (0 Bft)
25.10.2004 10:00 11,1 C 100 % 1016 hPa 0,0 l/m 11,1 C 11,1 C 0,0 km/h (0 Bft)
25.10.2004 11:00 12,5 C 97 % 1016 hPa 0,0 l/m 11,9 C 11,5 C 5,8 km/h (2 Bft)
25.10.2004 12:00 15,7 C 77 % 1016 hPa 0,0 l/m 11,7 C 14,4 C 10,0 km/h (2 Bft)
25.10.2004 13:00 18,5 C 65 % 1015 hPa 0,0 l/m 11,9 C 17,1 C 11,1 km/h (2 Bft)
25.10.2004 14:00 19,3 C 61 % 1015 hPa 0,0 l/m 11,7 C 18,3 C 10,3 km/h (2 Bft)
25.10.2004 15:00 18,4 C 68 % 1015 hPa 0,0 l/m 12,4 C 17,4 C 9,2 km/h (2 Bft)
25.10.2004 16:00 16,4 C 64 % 1015 hPa 0,0 l/m 9,6 C 14,1 C 13,8 km/h (3 Bft)
25.10.2004 17:00 15,4 C 64 % 1015 hPa 0,0 l/m 8,7 C 13,6 C 9,4 km/h (2 Bft)
25.10.2004 18:00 14,7 C 69 % 1014 hPa 0,0 l/m 9,2 C 14,7 C 0,7 km/h (0 Bft)
25.10.2004 19:00 13,9 C 76 % 1014 hPa 0,0 l/m 9,7 C 13,9 C 0,6 km/h (0 Bft)
25.10.2004 20:00 13,3 C 80 % 1014 hPa 0,0 l/m 10,0 C 13,3 C 0,0 km/h (0 Bft)
25.10.2004 21:00 12,5 C 85 % 1013 hPa 0,0 l/m 10,0 C 12,5 C 0,0 km/h (0 Bft)
25.10.2004 22:00 12,1 C 88 % 1014 hPa 0,0 l/m 10,3 C 11,8 C 4,6 km/h (1 Bft)
25.10.2004 23:00 11,9 C 90 % 1014 hPa 0,0 l/m 10,4 C 11,7 C 4,0 km/h (1 Bft)
26.10.2004 00:00 11,8 C 92 % 1013 hPa 1,0 l/m 10,5 C 10,7 C 6,8 km/h (2 Bft)
26.10.2004 01:00 11,1 C 95 % 1013 hPa 1,0 l/m 10,4 C 8,8 C 11,5 km/h (2 Bft)
26.10.2004 02:00 10,5 C 97 % 1013 hPa 0,0 l/m 10,1 C 9,0 C 10,1 km/h (2 Bft)
26.10.2004 03:00 10,2 C 98 % 1013 hPa 1,0 l/m 9,9 C 10,0 C 5,9 km/h (2 Bft)
26.10.2004 04:00 10,0 C 100 % 1013 hPa 0,0 l/m 9,9 C 9,1 C 8,4 km/h (2 Bft)
26.10.2004 05:00 9,9 C 100 % 1013 hPa 0,0 l/m 9,9 C 8,6 C 8,8 km/h (2 Bft)
26.10.2004 06:00 10,0 C 100 % 1012 hPa 0,0 l/m 10,0 C 7,6 C 11,5 km/h (2 Bft)
26.10.2004 07:00 10,0 C 99 % 1011 hPa 0,0 l/m 9,9 C 7,5 C 12,2 km/h (2 Bft)
26.10.2004 08:00 9,8 C 99 % 1012 hPa 1,0 l/m 9,7 C 8,2 C 9,4 km/h (2 Bft)
26.10.2004 09:00 9,5 C 100 % 1012 hPa 0,0 l/m 9,5 C 6,5 C 12,4 km/h (3 Bft)
26.10.2004 10:00 8,9 C 100 % 1012 hPa 0,0 l/m 8,9 C 5,4 C 13,8 km/h (3 Bft)
26.10.2004 11:00 9,0 C 100 % 1013 hPa 1,0 l/m 9,0 C 5,7 C 13,1 km/h (3 Bft)
26.10.2004 12:00 8,9 C 100 % 1013 hPa 0,0 l/m 8,9 C 5,9 C 12,2 km/h (2 Bft)
26.10.2004 13:00 8,6 C 100 % 1013 hPa 1,0 l/m 8,6 C 5,8 C 12,2 km/h (2 Bft)
26.10.2004 14:00 8,7 C 100 % 1013 hPa 0,0 l/m 8,7 C 6,3 C 11,1 km/h (2 Bft)
26.10.2004 15:00 8,6 C 100 % 1013 hPa 0,0 l/m 8,6 C 6,8 C 10,0 km/h (2 Bft)
26.10.2004 16:00 8,8 C 100 % 1013 hPa 0,0 l/m 8,8 C 6,6 C 10,7 km/h (2 Bft)
26.10.2004 17:00 8,6 C 100 % 1012 hPa 0,0 l/m 8,6 C 6,1 C 11,2 km/h (2 Bft)
26.10.2004 18:00 8,4 C 99 % 1012 hPa 0,0 l/m 8,2 C 6,5 C 10,6 km/h (2 Bft)
26.10.2004 19:00 8,2 C 100 % 1012 hPa 1,0 l/m 8,2 C 6,3 C 10,2 km/h (2 Bft)
26.10.2004 20:00 7,9 C 100 % 1013 hPa 2,0 l/m 7,9 C 5,7 C 10,4 km/h (2 Bft)
26.10.2004 21:00 7,6 C 100 % 1013 hPa 4,0 l/m 7,6 C 4,9 C 11,6 km/h (2 Bft)
26.10.2004 22:00 7,4 C 100 % 1013 hPa 2,0 l/m 7,4 C 5,9 C 8,9 km/h (2 Bft)
26.10.2004 23:00 7,3 C 100 % 1013 hPa 3,0 l/m 7,3 C 6,0 C 8,9 km/h (2 Bft)
27.10.2004 00:00 7,2 C 100 % 1012 hPa 0,0 l/m 7,2 C 5,9 C 9,0 km/h (2 Bft)
27.10.2004 01:00 7,1 C 100 % 1012 hPa 0,0 l/m 7,1 C 5,8 C 8,2 km/h (2 Bft)
27.10.2004 02:00 7,0 C 100 % 1012 hPa 0,0 l/m 7,0 C 6,8 C 3,5 km/h (1 Bft)
27.10.2004 03:00 7,0 C 100 % 1012 hPa 2,0 l/m 7,0 C 6,8 C 5,5 km/h (1 Bft)
27.10.2004 04:00 6,9 C 100 % 1011 hPa 0,0 l/m 6,9 C 6,0 C 8,4 km/h (2 Bft)
27.10.2004 05:00 6,9 C 100 % 1010 hPa 0,0 l/m 6,9 C 5,7 C 8,6 km/h (2 Bft)
27.10.2004 06:00 7,0 C 100 % 1010 hPa 0,0 l/m 7,0 C 5,8 C 8,6 km/h (2 Bft)
27.10.2004 07:00 7,0 C 100 % 1010 hPa 0,0 l/m 7,0 C 5,7 C 8,6 km/h (2 Bft)
27.10.2004 08:00 7,1 C 100 % 1009 hPa 0,0 l/m 7,1 C 5,0 C 11,0 km/h (2 Bft)
27.10.2004 09:00 7,6 C 100 % 1009 hPa 0,0 l/m 7,6 C 5,5 C 10,1 km/h (2 Bft)
27.10.2004 10:00 7,8 C 100 % 1008 hPa 0,0 l/m 7,8 C 5,5 C 10,8 km/h (2 Bft)
27.10.2004 11:00 8,1 C 99 % 1008 hPa 0,0 l/m 8,0 C 5,0 C 12,3 km/h (3 Bft)
27.10.2004 12:00 8,4 C 96 % 1007 hPa 0,0 l/m 7,8 C 5,0 C 12,9 km/h (3 Bft)
27.10.2004 13:00 8,8 C 95 % 1007 hPa 0,0 l/m 7,9 C 6,7 C 10,4 km/h (2 Bft)
27.10.2004 14:00 9,1 C 94 % 1006 hPa 0,0 l/m 8,1 C 7,3 C 9,9 km/h (2 Bft)
27.10.2004 15:00 9,4 C 93 % 1006 hPa 0,0 l/m 8,3 C 8,6 C 7,6 km/h (2 Bft)
27.10.2004 16:00 9,4 C 93 % 1006 hPa 0,0 l/m 8,4 C 8,5 C 8,2 km/h (2 Bft)
27.10.2004 17:00 9,2 C 96 % 1006 hPa 0,0 l/m 8,6 C 7,1 C 10,4 km/h (2 Bft)
27.10.2004 18:00 9,1 C 97 % 1005 hPa 0,0 l/m 8,7 C 8,1 C 8,7 km/h (2 Bft)
27.10.2004 19:00 9,1 C 98 % 1005 hPa 0,0 l/m 8,8 C 8,3 C 8,2 km/h (2 Bft)
27.10.2004 20:00 9,0 C 98 % 1004 hPa 0,0 l/m 8,7 C 8,1 C 7,9 km/h (2 Bft)
27.10.2004 21:00 9,1 C 98 % 1004 hPa 0,0 l/m 8,8 C 7,9 C 8,6 km/h (2 Bft)
27.10.2004 22:00 9,0 C 98 % 1004 hPa 0,0 l/m 8,7 C 7,3 C 9,6 km/h (2 Bft)
27.10.2004 23:00 8,9 C 99 % 1004 hPa 0,0 l/m 8,7 C 7,9 C 6,0 km/h (2 Bft)
28.10.2004 00:00 8,8 C 100 % 1004 hPa 0,0 l/m 8,8 C 8,8 C 0,0 km/h (0 Bft)
28.10.2004 01:00 8,7 C 100 % 1004 hPa 0,0 l/m 8,7 C 8,7 C 1,0 km/h (0 Bft)
28.10.2004 02:00 8,7 C 100 % 1004 hPa 0,0 l/m 8,7 C 8,7 C 0,0 km/h (0 Bft)
28.10.2004 03:00 8,5 C 100 % 1004 hPa 0,0 l/m 8,5 C 8,5 C 0,0 km/h (0 Bft)
28.10.2004 04:00 8,3 C 100 % 1004 hPa 0,0 l/m 8,3 C 8,3 C 0,0 km/h (0 Bft)
28.10.2004 05:00 8,1 C 100 % 1004 hPa 0,0 l/m 8,1 C 8,1 C 0,3 km/h (0 Bft)
28.10.2004 06:00 8,1 C 100 % 1004 hPa 0,0 l/m 8,1 C 8,1 C 0,0 km/h (0 Bft)
28.10.2004 07:00 8,1 C 100 % 1004 hPa 0,0 l/m 8,1 C 8,1 C 0,0 km/h (0 Bft)
28.10.2004 08:00 8,1 C 100 % 1004 hPa 0,0 l/m 8,1 C 7,9 C 3,0 km/h (1 Bft)
28.10.2004 09:00 8,6 C 100 % 1005 hPa 0,0 l/m 8,6 C 8,5 C 1,8 km/h (1 Bft)
28.10.2004 10:00 9,2 C 100 % 1005 hPa 0,0 l/m 9,2 C 9,1 C 2,5 km/h (1 Bft)
28.10.2004 11:00 9,9 C 100 % 1005 hPa 0,0 l/m 9,9 C 9,9 C 1,2 km/h (1 Bft)
28.10.2004 12:00 11,0 C 98 % 1005 hPa 0,0 l/m 10,8 C 11,0 C 0,0 km/h (0 Bft)
28.10.2004 13:00 11,4 C 97 % 1004 hPa 1,0 l/m 11,0 C 11,1 C 3,4 km/h (1 Bft)
28.10.2004 14:00 11,4 C 99 % 1004 hPa 0,0 l/m 11,3 C 11,4 C 2,0 km/h (1 Bft)
28.10.2004 15:00 12,9 C 97 % 1003 hPa 0,0 l/m 12,4 C 12,9 C 1,5 km/h (1 Bft)
28.10.2004 16:00 13,7 C 88 % 1003 hPa 0,0 l/m 11,7 C 13,6 C 4,4 km/h (1 Bft)
28.10.2004 17:00 13,1 C 89 % 1003 hPa 0,0 l/m 11,4 C 13,0 C 3,5 km/h (1 Bft)
28.10.2004 18:00 11,9 C 92 % 1003 hPa 0,0 l/m 10,6 C 11,9 C 0,1 km/h (0 Bft)
28.10.2004 19:00 10,9 C 94 % 1003 hPa 0,0 l/m 10,1 C 10,9 C 0,0 km/h (0 Bft)
28.10.2004 20:00 10,6 C 97 % 1003 hPa 0,0 l/m 10,0 C 10,6 C 0,0 km/h (0 Bft)
28.10.2004 21:00 10,3 C 98 % 1003 hPa 0,0 l/m 10,1 C 10,3 C 1,9 km/h (1 Bft)
28.10.2004 22:00 9,6 C 99 % 1002 hPa 0,0 l/m 9,5 C 9,6 C 1,4 km/h (1 Bft)
28.10.2004 23:00 9,2 C 99 % 1002 hPa 0,0 l/m 9,0 C 9,2 C 0,5 km/h (0 Bft)
29.10.2004 00:00 8,9 C 99 % 1002 hPa 0,0 l/m 8,8 C 8,8 C 0,8 km/h (0 Bft)
29.10.2004 01:00 8,9 C 99 % 1002 hPa 0,0 l/m 8,7 C 8,6 C 4,4 km/h (1 Bft)
29.10.2004 02:00 8,9 C 99 % 1002 hPa 0,0 l/m 8,7 C 8,6 C 4,7 km/h (1 Bft)
29.10.2004 03:00 8,9 C 99 % 1002 hPa 0,0 l/m 8,8 C 7,9 C 8,3 km/h (2 Bft)
29.10.2004 04:00 9,1 C 99 % 1002 hPa 0,0 l/m 9,0 C 8,1 C 7,2 km/h (2 Bft)
29.10.2004 05:00 8,9 C 99 % 1002 hPa 0,0 l/m 8,7 C 8,9 C 0,9 km/h (0 Bft)
29.10.2004 06:00 8,5 C 99 % 1002 hPa 0,0 l/m 8,4 C 8,5 C 0,0 km/h (0 Bft)
29.10.2004 07:00 7,8 C 99 % 1002 hPa 0,0 l/m 7,7 C 7,8 C 1,0 km/h (0 Bft)
29.10.2004 08:00 6,7 C 99 % 1002 hPa 0,0 l/m 6,5 C 6,0 C 4,6 km/h (1 Bft)
29.10.2004 09:00 6,8 C 99 % 1003 hPa 0,0 l/m 6,6 C 6,8 C 0,0 km/h (0 Bft)
29.10.2004 10:00 7,8 C 99 % 1003 hPa 0,0 l/m 7,6 C 7,8 C 0,0 km/h (0 Bft)
29.10.2004 11:00 10,2 C 99 % 1003 hPa 0,0 l/m 10,1 C 10,2 C 0,2 km/h (0 Bft)
29.10.2004 12:00 12,2 C 97 % 1003 hPa 0,0 l/m 11,7 C 11,9 C 2,9 km/h (1 Bft)
29.10.2004 13:00 12,5 C 91 % 1003 hPa 0,0 l/m 11,1 C 12,4 C 1,1 km/h (0 Bft)
29.10.2004 14:00 13,0 C 86 % 1003 hPa 0,0 l/m 10,7 C 12,9 C 0,6 km/h (0 Bft)
29.10.2004 15:00 13,3 C 84 % 1003 hPa 0,0 l/m 10,5 C 13,3 C 0,0 km/h (0 Bft)
29.10.2004 16:00 13,1 C 83 % 1002 hPa 0,0 l/m 10,4 C 13,1 C 0,0 km/h (0 Bft)
29.10.2004 17:00 12,4 C 89 % 1003 hPa 0,0 l/m 10,6 C 12,4 C 0,0 km/h (0 Bft)
29.10.2004 18:00 11,4 C 94 % 1003 hPa 0,0 l/m 10,5 C 11,4 C 0,5 km/h (0 Bft)
29.10.2004 19:00 10,5 C 97 % 1003 hPa 0,0 l/m 10,0 C 10,5 C 0,0 km/h (0 Bft)
29.10.2004 20:00 9,5 C 98 % 1003 hPa 0,0 l/m 9,3 C 9,5 C 0,0 km/h (0 Bft)
29.10.2004 21:00 9,0 C 100 % 1003 hPa 0,0 l/m 9,0 C 9,0 C 0,0 km/h (0 Bft)
29.10.2004 22:00 8,5 C 100 % 1002 hPa 0,0 l/m 8,5 C 8,5 C 0,0 km/h (0 Bft)
29.10.2004 23:00 7,9 C 100 % 1002 hPa 0,0 l/m 7,9 C 7,7 C 1,3 km/h (1 Bft)
30.10.2004 00:00 7,8 C 100 % 1002 hPa 0,0 l/m 7,8 C 7,5 C 4,1 km/h (1 Bft)
30.10.2004 01:00 7,7 C 100 % 1002 hPa 0,0 l/m 7,7 C 7,0 C 7,5 km/h (2 Bft)
30.10.2004 02:00 8,2 C 100 % 1002 hPa 0,0 l/m 8,2 C 8,1 C 3,1 km/h (1 Bft)
30.10.2004 03:00 8,8 C 100 % 1002 hPa 0,0 l/m 8,8 C 7,9 C 6,2 km/h (2 Bft)
30.10.2004 04:00 9,1 C 100 % 1002 hPa 0,0 l/m 9,1 C 8,1 C 8,2 km/h (2 Bft)
30.10.2004 05:00 9,3 C 100 % 1004 hPa 0,0 l/m 9,3 C 8,7 C 4,3 km/h (1 Bft)
30.10.2004 06:00 9,4 C 100 % 1004 hPa 0,0 l/m 9,4 C 8,8 C 4,0 km/h (1 Bft)
30.10.2004 07:00 9,3 C 100 % 1005 hPa 0,0 l/m 9,3 C 8,8 C 4,8 km/h (1 Bft)
30.10.2004 08:00 9,5 C 100 % 1006 hPa 1,0 l/m 9,5 C 7,4 C 11,7 km/h (2 Bft)
30.10.2004 09:00 9,7 C 100 % 1007 hPa 0,0 l/m 9,7 C 8,9 C 6,6 km/h (2 Bft)
30.10.2004 10:00 10,4 C 100 % 1008 hPa 0,0 l/m 10,4 C 8,5 C 10,6 km/h (2 Bft)
30.10.2004 11:00 11,7 C 89 % 1008 hPa 0,0 l/m 9,9 C 9,7 C 11,7 km/h (2 Bft)
30.10.2004 12:00 12,9 C 70 % 1009 hPa 0,0 l/m 7,6 C 10,1 C 12,3 km/h (3 Bft)
30.10.2004 13:00 13,8 C 61 % 1009 hPa 0,0 l/m 6,4 C 10,6 C 15,4 km/h (3 Bft)
30.10.2004 14:00 14,3 C 56 % 1009 hPa 0,0 l/m 5,7 C 11,2 C 15,0 km/h (3 Bft)
30.10.2004 15:00 13,7 C 60 % 1010 hPa 0,0 l/m 6,0 C 11,9 C 10,6 km/h (2 Bft)
30.10.2004 16:00 13,3 C 61 % 1010 hPa 0,0 l/m 5,9 C 12,4 C 6,8 km/h (2 Bft)
30.10.2004 17:00 12,2 C 69 % 1011 hPa 0,0 l/m 6,7 C 12,2 C 0,0 km/h (0 Bft)
30.10.2004 18:00 9,9 C 77 % 1012 hPa 0,0 l/m 6,1 C 9,9 C 0,0 km/h (0 Bft)
30.10.2004 19:00 8,2 C 84 % 1012 hPa 0,0 l/m 5,7 C 8,2 C 0,6 km/h (0 Bft)
30.10.2004 20:00 7,0 C 89 % 1013 hPa 0,0 l/m 5,4 C 7,0 C 0,0 km/h (0 Bft)
30.10.2004 21:00 6,2 C 92 % 1013 hPa 0,0 l/m 5,1 C 6,2 C 0,0 km/h (0 Bft)
30.10.2004 22:00 5,6 C 95 % 1014 hPa 0,0 l/m 4,8 C 5,6 C 0,0 km/h (0 Bft)
30.10.2004 23:00 5,3 C 96 % 1014 hPa 0,0 l/m 4,7 C 4,9 C 2,3 km/h (1 Bft)
31.10.2004 00:00 5,2 C 98 % 1014 hPa 0,0 l/m 4,9 C 5,2 C 0,0 km/h (0 Bft)
31.10.2004 01:00 4,7 C 99 % 1014 hPa 0,0 l/m 4,6 C 4,7 C 0,0 km/h (0 Bft)
31.10.2004 02:00 4,5 C 100 % 1014 hPa 0,0 l/m 4,5 C 4,4 C 4,4 km/h (1 Bft)
31.10.2004 03:00 4,6 C 100 % 1014 hPa 0,0 l/m 4,6 C 4,4 C 2,4 km/h (1 Bft)
31.10.2004 04:00 4,7 C 100 % 1014 hPa 0,0 l/m 4,7 C 3,7 C 6,7 km/h (2 Bft)
31.10.2004 05:00 5,2 C 100 % 1014 hPa 0,0 l/m 5,2 C 3,8 C 8,6 km/h (2 Bft)
31.10.2004 06:00 5,7 C 100 % 1014 hPa 0,0 l/m 5,7 C 3,3 C 10,8 km/h (2 Bft)
31.10.2004 07:00 6,0 C 100 % 1013 hPa 0,0 l/m 6,0 C 2,5 C 12,7 km/h (3 Bft)
31.10.2004 08:00 6,5 C 100 % 1014 hPa 0,0 l/m 6,5 C 2,6 C 13,8 km/h (3 Bft)
31.10.2004 09:00 7,4 C 100 % 1014 hPa 0,0 l/m 7,3 C 2,7 C 15,5 km/h (3 Bft)
31.10.2004 10:00 8,5 C 96 % 1014 hPa 0,0 l/m 7,9 C 2,7 C 18,4 km/h (3 Bft)
31.10.2004 11:00 9,8 C 88 % 1013 hPa 0,0 l/m 8,0 C 3,6 C 21,3 km/h (4 Bft)
31.10.2004 12:00 10,6 C 82 % 1013 hPa 0,0 l/m 7,7 C 4,6 C 19,8 km/h (4 Bft)
31.10.2004 13:00 11,0 C 78 % 1013 hPa 0,0 l/m 7,3 C 5,1 C 21,9 km/h (4 Bft)
31.10.2004 14:00 11,0 C 80 % 1013 hPa 0,0 l/m 7,7 C 5,5 C 20,4 km/h (4 Bft)
31.10.2004 15:00 10,2 C 86 % 1013 hPa 0,0 l/m 8,0 C 4,7 C 19,6 km/h (3 Bft)
31.10.2004 16:00 9,7 C 90 % 1014 hPa 0,0 l/m 8,1 C 4,7 C 17,4 km/h (3 Bft)
31.10.2004 17:00 9,4 C 92 % 1014 hPa 0,0 l/m 8,2 C 4,4 C 17,6 km/h (3 Bft)
31.10.2004 18:00 9,3 C 94 % 1015 hPa 0,0 l/m 8,3 C 4,8 C 15,8 km/h (3 Bft)
31.10.2004 19:00 9,1 C 95 % 1015 hPa 0,0 l/m 8,3 C 4,6 C 15,5 km/h (3 Bft)
31.10.2004 20:00 8,8 C 97 % 1015 hPa 0,0 l/m 8,3 C 4,4 C 15,3 km/h (3 Bft)
31.10.2004 21:00 8,6 C 100 % 1016 hPa 0,0 l/m 8,5 C 5,2 C 12,7 km/h (3 Bft)
31.10.2004 22:00 8,5 C 100 % 1016 hPa 0,0 l/m 8,5 C 4,1 C 16,0 km/h (3 Bft)
31.10.2004 23:00 8,5 C 100 % 1016 hPa 0,0 l/m 8,5 C 4,1 C 14,7 km/h (3 Bft)
Min-Datum _ 31.10.04 30.10.04 29.10.04 - 31.10.04 31.10.04 25.10.04
_ Min-Zeit 02:14 14:07 00:56 - 02:14 08:06 00:01
Minimum _ 4,4 C 54 % 1001 hPa - 4,4 C -0,0 C 0,0 km/h (0 Bft)
Max-Datum _ 25.10.04 25.10.04 25.10.04 26.10.04 25.10.04 25.10.04 31.10.04
_ Max-Zeit 14:16 02:10 09:27 20:00 15:22 14:26 11:35
Maximum _ 19,8 C 100 % 1016 hPa 4,0 l/m 12,8 C 19,6 C 43,3 km/h
N (6 Bft)
Durchschnitt _ 9,5 C 94 % 1009 hPa #22,0 l/m 8,5 C 8,3 C 6,4 km/h (2 Bft)

Durchschnitt Minimum Temp.9,2 C
Durchschnitt Maximum Temp.9,9 C